Time;durP1;ratioP1;P1;durP2;ratioP2;P2;SDS_P1;SDS_P2;PMS_P1;PMS_P2;Temp;Humidity;BMP_temperature;BMP_pressure;BME280_temperature;BME280_humidity;BME280_pressure;Samples;Min_cycle;Max_cycle;Signal;HPM_P1;HPM_P2
2023/01/10 00:00:12;;;;;;;7.60;3.10;;;;;;;2.29;80.37;98554.33;105641;1254;76786;-26
2023/01/10 00:02:39;;;;;;;7.70;3.30;;;;;;;2.06;81.11;98560.57;105687;1254;75478;-26
2023/01/10 00:05:07;;;;;;;10.50;3.60;;;;;;;2.12;81.40;98565.00;105841;1253;61815;-26
2023/01/10 00:07:35;;;;;;;6.30;2.90;;;;;;;2.36;80.43;98570.77;105641;1253;61448;-25
2023/01/10 00:10:02;;;;;;;6.60;2.80;;;;;;;2.27;80.06;98577.39;105713;1254;75313;-24
2023/01/10 00:15:15;;;;;;;6.40;3.40;;;;;;;1.91;81.39;98584.63;105804;1254;73896;-25
2023/01/10 00:17:44;;;;;;;5.20;2.70;;;;;;;2.21;80.81;98585.44;105820;1253;61529;-25
2023/01/10 00:20:11;;;;;;;7.40;3.20;;;;;;;2.28;79.88;98590.35;105817;1256;62512;-26
2023/01/10 00:22:38;;;;;;;7.10;3.70;;;;;;;2.12;80.21;98592.95;105687;1254;74258;-25
2023/01/10 00:25:06;;;;;;;9.20;3.60;;;;;;;1.84;80.95;98598.02;105579;1259;75585;-25
2023/01/10 00:27:34;;;;;;;5.20;2.50;;;;;;;1.87;81.30;98605.21;105725;1254;75243;-25
2023/01/10 00:30:12;;;;;;;20.50;3.90;;;;;;;2.22;80.08;98600.45;105702;1257;62536;-25
2023/01/10 00:32:41;;;;;;;6.60;3.30;;;;;;;2.22;79.53;98605.09;105631;1254;62820;-26
2023/01/10 00:35:09;;;;;;;9.10;3.40;;;;;;;1.97;79.92;98615.96;105623;1254;75253;-25
2023/01/10 00:37:37;;;;;;;6.60;3.10;;;;;;;1.76;80.65;98610.59;105693;1261;74930;-26
2023/01/10 00:40:09;;;;;;;3.50;2.30;;;;;;;1.78;81.07;98607.92;105635;1254;74169;-25
2023/01/10 00:45:23;;;;;;;7.40;3.20;;;;;;;2.06;79.50;98604.90;105622;1254;62332;-25
2023/01/10 00:47:51;;;;;;;4.70;2.80;;;;;;;1.83;80.21;98617.89;105565;1254;73148;-25
2023/01/10 00:50:18;;;;;;;9.00;2.70;;;;;;;1.61;80.96;98613.39;105319;1254;76480;-25
2023/01/10 00:52:45;;;;;;;6.40;3.30;;;;;;;1.73;81.21;98608.18;105579;1253;73209;-25
2023/01/10 00:55:11;;;;;;;13.20;4.00;;;;;;;2.01;80.05;98609.12;105783;1257;61509;-25
2023/01/10 00:57:38;;;;;;;9.30;3.70;;;;;;;1.94;79.80;98607.27;105751;1253;61459;-26
2023/01/10 01:00:08;;;;;;;7.80;4.20;;;;;;;1.77;80.18;98613.29;105648;1254;75444;-25
2023/01/10 01:02:35;;;;;;;8.60;3.80;;;;;;;1.53;81.18;98606.97;105665;1260;76662;-25
2023/01/10 01:05:03;;;;;;;8.60;3.70;;;;;;;1.76;81.16;98612.33;105673;1254;75018;-25
2023/01/10 01:07:30;;;;;;;11.80;4.10;;;;;;;2.00;80.01;98609.85;105678;1254;62910;-25
2023/01/10 01:12:42;;;;;;;10.10;3.20;;;;;;;1.68;80.74;98618.35;105743;1257;75532;-25
2023/01/10 01:15:11;;;;;;;6.90;3.80;;;;;;;1.58;81.43;98616.99;105781;1257;75555;-25
2023/01/10 01:17:38;;;;;;;4.80;2.90;;;;;;;1.89;80.69;98615.91;105640;1254;75029;-25
2023/01/10 01:20:06;;;;;;;6.00;3.30;;;;;;;2.03;79.82;98619.44;105689;1254;61883;-25
2023/01/10 01:22:33;;;;;;;6.80;2.60;;;;;;;1.87;79.96;98614.46;105622;1253;61979;-25
2023/01/10 01:25:00;;;;;;;11.60;4.10;;;;;;;1.62;80.91;98612.14;105730;1254;75280;-26
2023/01/10 01:27:27;;;;;;;6.70;3.20;;;;;;;1.60;81.48;98614.65;105794;1253;76834;-26
2023/01/10 01:29:54;;;;;;;6.40;2.80;;;;;;;1.97;80.47;98624.89;105718;1254;75567;-25
2023/01/10 01:32:22;;;;;;;10.80;4.10;;;;;;;2.02;79.64;98610.59;105705;1254;62847;-25
2023/01/10 01:34:49;;;;;;;4.50;3.00;;;;;;;1.83;80.03;98609.17;105644;1254;61771;-25
2023/01/10 01:37:18;;;;;;;11.80;3.90;;;;;;;1.62;80.70;98618.98;105677;1258;75249;-26
2023/01/10 01:39:48;;;;;;;17.10;3.60;;;;;;;1.56;81.22;98608.54;105739;1254;76739;-25
2023/01/10 01:42:29;;;;;;;8.80;2.90;;;;;;;1.92;80.34;98606.17;105632;1259;73302;-25
2023/01/10 01:45:18;;;;;;;12.20;3.90;;;;;;;1.97;79.62;98604.51;105464;1264;62679;-25
2023/01/10 01:47:59;;;;;;;9.10;2.70;;;;;;;1.73;79.97;98604.21;105696;1254;62828;-26
2023/01/10 01:50:35;;;;;;;17.20;3.50;;;;;;;1.53;80.76;98600.44;105680;1254;75723;-25
2023/01/10 01:53:04;;;;;;;5.30;2.70;;;;;;;1.76;80.59;98588.02;105666;1259;76524;-25
2023/01/10 01:55:31;;;;;;;7.10;2.50;;;;;;;1.97;79.52;98595.48;105672;1261;73087;-25
2023/01/10 01:57:59;;;;;;;8.00;2.80;;;;;;;1.86;79.47;98592.25;105748;1257;61214;-25
2023/01/10 02:00:26;;;;;;;5.90;2.90;;;;;;;1.65;80.02;98592.14;105454;1254;61474;-26
2023/01/10 02:02:55;;;;;;;8.80;3.40;;;;;;;1.52;80.92;98596.57;105642;1258;74139;-25
2023/01/10 02:05:29;;;;;;;6.60;3.10;;;;;;;1.86;79.98;98599.79;105631;1253;76804;-25
2023/01/10 02:07:56;;;;;;;8.10;3.40;;;;;;;1.85;79.42;98605.31;105656;1257;75223;-25
2023/01/10 02:10:35;;;;;;;4.60;2.20;;;;;;;1.68;79.68;98606.03;105687;1256;61202;-25
2023/01/10 02:13:03;;;;;;;4.90;1.80;;;;;;;1.44;80.50;98605.71;105465;1259;62774;-25
2023/01/10 02:15:31;;;;;;;6.90;3.10;;;;;;;1.57;80.36;98601.45;105728;1254;74215;-25
2023/01/10 02:17:58;;;;;;;7.50;2.40;;;;;;;1.70;79.65;98606.29;105630;1254;76806;-25
2023/01/10 02:20:25;;;;;;;4.30;2.60;;;;;;;1.62;79.51;98604.14;105647;1259;75442;-25
2023/01/10 02:23:20;;;;;;;4.60;2.30;;;;;;;1.40;79.88;98602.14;105597;1254;61725;-26
2023/01/10 02:26:25;;;;;;;12.20;3.40;;;;;;;1.33;80.53;98602.35;105576;1259;62796;-24
2023/01/10 02:29:41;;;;;;;5.50;1.90;;;;;;;1.67;79.23;98600.11;105712;1257;74440;-25
2023/01/10 02:32:26;;;;;;;5.20;3.10;;;;;;;1.50;78.86;98592.04;105143;1254;76923;-25
2023/01/10 02:35:15;;;;;;;7.00;3.60;;;;;;;1.20;79.68;98592.55;105770;1254;75336;-25
2023/01/10 02:38:14;;;;;;;6.20;3.20;;;;;;;1.07;80.03;98598.99;105587;1257;63235;-25
2023/01/10 02:41:05;;;;;;;5.50;3.50;;;;;;;1.31;79.00;98604.67;105590;1254;61632;-25
2023/01/10 02:43:46;;;;;;;6.50;2.90;;;;;;;1.17;78.61;98613.41;105680;1259;74447;-25
2023/01/10 02:46:23;;;;;;;5.10;2.70;;;;;;;0.87;78.98;98606.30;105449;1262;77261;-25
2023/01/10 02:48:54;;;;;;;7.30;3.70;;;;;;;0.59;79.93;98618.38;105469;1260;74088;-24
2023/01/10 02:51:28;;;;;;;5.40;2.50;;;;;;;0.79;79.26;98615.38;105506;1254;61705;-25
2023/01/10 02:54:02;;;;;;;8.90;3.30;;;;;;;0.87;78.28;98621.34;105651;1254;61706;-25
2023/01/10 02:56:43;;;;;;;12.90;3.60;;;;;;;0.68;78.59;98625.30;105713;1254;75512;-25
2023/01/10 02:59:28;;;;;;;5.80;3.50;;;;;;;0.41;79.68;98629.80;105617;1261;75868;-25
2023/01/10 03:02:24;;;;;;;8.60;3.40;;;;;;;0.46;79.75;98637.44;105662;1259;75260;-25
2023/01/10 03:05:02;;;;;;;7.60;3.60;;;;;;;0.74;78.81;98643.15;105466;1258;61160;-25
2023/01/10 03:07:43;;;;;;;8.10;3.40;;;;;;;0.62;78.53;98652.23;105584;1254;61436;-24
2023/01/10 03:10:17;;;;;;;5.10;3.00;;;;;;;0.46;79.20;98660.84;105627;1254;74481;-25
2023/01/10 03:12:51;;;;;;;8.40;4.10;;;;;;;0.24;80.23;98657.55;105699;1255;75699;-24
2023/01/10 03:15:18;;;;;;;8.50;2.40;;;;;;;0.52;79.96;98664.66;105519;1256;75069;-25
2023/01/10 03:17:49;;;;;;;6.50;2.90;;;;;;;0.68;79.13;98675.02;105287;1262;62082;-25
2023/01/10 03:20:16;;;;;;;11.60;5.10;;;;;;;0.57;79.20;98672.95;105631;1254;61720;-25
2023/01/10 03:22:43;;;;;;;5.90;3.80;;;;;;;0.32;79.96;98676.00;105753;1254;74100;-25
2023/01/10 03:25:11;;;;;;;5.00;3.30;;;;;;;0.29;80.25;98675.77;105651;1259;75104;-25
2023/01/10 03:27:44;;;;;;;6.00;3.40;;;;;;;0.58;79.70;98679.75;105804;1254;74315;-25
2023/01/10 03:30:27;;;;;;;10.20;4.50;;;;;;;0.57;78.78;98663.06;105638;1262;61245;-25
2023/01/10 03:32:54;;;;;;;9.30;4.00;;;;;;;0.35;79.56;98672.11;105630;1254;61522;-25
2023/01/10 03:35:28;;;;;;;12.80;4.80;;;;;;;0.12;80.30;98672.80;105745;1260;75712;-25
2023/01/10 03:37:57;;;;;;;7.40;3.80;;;;;;;0.18;80.84;98674.73;105618;1260;75534;-25
2023/01/10 03:40:32;;;;;;;11.50;5.50;;;;;;;0.45;79.97;98675.91;105561;1259;73051;-25
2023/01/10 03:45:52;;;;;;;11.60;5.90;;;;;;;0.16;80.27;98674.67;105500;1259;62819;-25
2023/01/10 03:48:19;;;;;;;6.40;3.90;;;;;;;0.07;81.11;98690.09;105644;1259;75028;-24
2023/01/10 03:50:46;;;;;;;11.50;6.90;;;;;;;0.38;80.67;98688.20;105801;1257;76824;-24
2023/01/10 03:53:14;;;;;;;7.20;3.90;;;;;;;0.34;80.09;98671.98;105523;1254;75046;-24
2023/01/10 03:55:41;;;;;;;8.10;5.20;;;;;;;0.15;80.61;98681.33;105621;1260;62097;-25
2023/01/10 03:58:08;;;;;;;8.00;3.90;;;;;;;-0.04;81.39;98686.63;105577;1254;63037;-25
2023/01/10 04:00:35;;;;;;;7.10;4.30;;;;;;;0.28;80.98;98692.56;105752;1254;74005;-26
2023/01/10 04:03:02;;;;;;;12.50;6.30;;;;;;;0.49;79.67;98695.05;105585;1260;76480;-26
2023/01/10 04:05:29;;;;;;;16.60;7.10;;;;;;;0.34;79.49;98696.56;105728;1259;74903;-25
2023/01/10 04:07:56;;;;;;;20.80;8.60;;;;;;;0.04;80.04;98687.13;105749;1257;62006;-25
2023/01/10 04:10:25;;;;;;;23.90;10.10;;;;;;;-0.18;80.75;98697.98;105674;1254;62862;-25
2023/01/10 04:12:52;;;;;;;13.90;5.30;;;;;;;0.05;80.05;98697.32;105642;1254;76026;-25
2023/01/10 04:15:20;;;;;;;16.50;7.30;;;;;;;0.14;78.89;98709.02;105422;1254;75778;-25
2023/01/10 04:17:47;;;;;;;16.10;6.90;;;;;;;0.04;78.74;98706.95;105699;1254;75180;-26
2023/01/10 04:20:14;;;;;;;10.30;4.90;;;;;;;-0.25;79.12;98711.05;105641;1259;62119;-25
2023/01/10 04:22:43;;;;;;;19.80;7.20;;;;;;;-0.52;80.20;98720.20;105698;1254;61895;-25
2023/01/10 04:25:10;;;;;;;8.60;4.10;;;;;;;-0.48;80.00;98717.97;105680;1259;75423;-25
2023/01/10 04:27:37;;;;;;;18.60;7.70;;;;;;;-0.32;79.29;98721.74;105801;1257;75510;-25
2023/01/10 04:30:05;;;;;;;14.80;7.10;;;;;;;-0.42;79.05;98716.02;105613;1254;73816;-25
2023/01/10 04:32:32;;;;;;;8.50;4.60;;;;;;;-0.69;79.58;98734.18;105536;1257;62080;-25
2023/01/10 04:34:59;;;;;;;14.40;5.00;;;;;;;-0.79;80.22;98731.31;105669;1259;61148;-25
2023/01/10 04:37:26;;;;;;;12.40;5.60;;;;;;;-0.44;79.13;98725.50;105570;1259;76294;-25
2023/01/10 04:39:53;;;;;;;7.10;4.20;;;;;;;-0.33;78.33;98735.64;105649;1259;76733;-25
2023/01/10 04:42:20;;;;;;;11.00;5.80;;;;;;;-0.50;78.36;98727.29;105640;1257;75177;-25
2023/01/10 04:44:47;;;;;;;8.60;3.20;;;;;;;-0.76;79.02;98727.83;105629;1257;61688;-25
2023/01/10 04:47:14;;;;;;;9.60;4.40;;;;;;;-0.90;79.75;98747.95;105680;1259;62824;-25
2023/01/10 04:49:41;;;;;;;11.00;5.10;;;;;;;-0.61;78.75;98742.58;105652;1254;76041;-25
2023/01/10 04:52:09;;;;;;;8.20;3.50;;;;;;;-0.53;77.35;98743.27;105677;1259;76831;-25
2023/01/10 04:54:36;;;;;;;13.90;6.90;;;;;;;-0.67;77.45;98738.70;105540;1259;75120;-25
2023/01/10 04:57:04;;;;;;;13.50;5.70;;;;;;;-0.87;77.98;98742.77;105721;1254;61778;-25
2023/01/10 04:59:32;;;;;;;10.50;4.50;;;;;;;-1.14;78.82;98738.83;105717;1254;62546;-25
2023/01/10 05:01:59;;;;;;;14.60;5.00;;;;;;;-0.94;78.67;98750.15;105673;1254;75043;-25
2023/01/10 05:04:26;;;;;;;10.50;5.30;;;;;;;-0.80;77.46;98742.30;105328;1259;76128;-25
2023/01/10 05:06:53;;;;;;;12.70;6.00;;;;;;;-0.92;77.61;98747.86;105273;1257;75232;-25
2023/01/10 05:09:20;;;;;;;14.40;6.30;;;;;;;-1.18;78.09;98751.75;105655;1254;61736;-25
2023/01/10 05:11:47;;;;;;;13.60;5.70;;;;;;;-1.32;79.12;98756.55;105576;1254;62723;-25
2023/01/10 05:14:14;;;;;;;9.00;5.10;;;;;;;-0.97;78.40;98760.33;105804;1254;76265;-25
2023/01/10 05:16:41;;;;;;;8.20;4.50;;;;;;;-0.82;77.71;98773.56;105811;1254;76639;-25
2023/01/10 05:19:08;;;;;;;11.50;4.80;;;;;;;-0.94;77.57;98764.66;105601;1254;74908;-25
2023/01/10 05:21:35;;;;;;;16.00;6.10;;;;;;;-1.21;78.18;98774.55;105566;1259;61138;-25
2023/01/10 05:24:02;;;;;;;13.50;7.30;;;;;;;-1.39;78.85;98777.59;105507;1254;61466;-25
2023/01/10 05:26:29;;;;;;;11.50;5.50;;;;;;;-1.14;78.28;98785.00;105353;1254;76430;-25
2023/01/10 05:28:56;;;;;;;12.20;5.20;;;;;;;-1.03;77.49;98789.37;105505;1254;75815;-25
2023/01/10 05:31:23;;;;;;;11.30;7.10;;;;;;;-1.11;77.66;98799.18;105676;1258;72766;-25
2023/01/10 05:33:50;;;;;;;13.00;5.60;;;;;;;-1.27;77.69;98804.58;105514;1260;61168;-25
2023/01/10 05:36:18;;;;;;;15.80;8.00;;;;;;;-1.43;78.20;98805.31;105611;1260;63249;-25
2023/01/10 05:38:45;;;;;;;15.20;5.40;;;;;;;-1.31;78.08;98792.63;105699;1254;76527;-25
2023/01/10 05:41:12;;;;;;;14.70;6.50;;;;;;;-1.11;77.35;98802.78;105554;1254;74555;-26
2023/01/10 05:43:39;;;;;;;17.30;5.10;;;;;;;-1.21;77.25;98801.29;105512;1254;75560;-24
2023/01/10 05:46:06;;;;;;;12.90;5.70;;;;;;;-1.45;77.79;98797.70;105532;1254;61181;-24
2023/01/10 05:48:33;;;;;;;10.80;5.50;;;;;;;-1.68;78.40;98794.94;105487;1255;62604;-24
2023/01/10 05:51:00;;;;;;;7.90;4.10;;;;;;;-1.49;78.40;98816.09;105659;1259;74917;-24
2023/01/10 05:53:27;;;;;;;5.50;3.10;;;;;;;-1.29;77.75;98827.81;105639;1259;76490;-25
2023/01/10 05:55:58;;;;;;;10.40;4.80;;;;;;;-1.35;77.76;98822.56;105592;1254;74044;-24
2023/01/10 05:58:26;;;;;;;9.90;4.80;;;;;;;-1.58;77.94;98831.70;105347;1254;61097;-24
2023/01/10 06:00:53;;;;;;;11.20;4.80;;;;;;;-1.72;78.78;98829.30;105720;1254;62105;-24
2023/01/10 06:03:20;;;;;;;9.50;5.40;;;;;;;-1.44;77.54;98826.45;105514;1259;76388;-24
2023/01/10 06:05:48;;;;;;;11.20;5.00;;;;;;;-1.40;76.97;98837.90;105600;1259;75648;-24
2023/01/10 06:08:15;;;;;;;5.20;2.60;;;;;;;-1.53;77.57;98841.09;105541;1254;75151;-24
2023/01/10 06:10:42;;;;;;;8.00;4.20;;;;;;;-1.72;78.11;98839.69;105502;1259;62592;-24
2023/01/10 06:13:10;;;;;;;9.50;4.80;;;;;;;-1.82;78.95;98836.48;105658;1254;61032;-24
2023/01/10 06:15:38;;;;;;;11.40;4.40;;;;;;;-1.49;78.13;98834.45;105618;1254;76479;-24
2023/01/10 06:18:05;;;;;;;9.80;3.40;;;;;;;-1.45;77.84;98841.49;105614;1259;76660;-24
2023/01/10 06:20:32;;;;;;;5.10;2.80;;;;;;;-1.56;78.04;98845.25;105778;1254;74033;-25
2023/01/10 06:23:03;;;;;;;12.30;4.90;;;;;;;-1.73;78.74;98843.29;105732;1254;61163;-25
2023/01/10 06:25:32;;;;;;;8.50;4.10;;;;;;;-1.70;79.18;98850.68;105654;1254;61745;-24
2023/01/10 06:27:59;;;;;;;8.80;4.80;;;;;;;-1.34;77.87;98843.83;105658;1254;76321;-24
2023/01/10 06:30:26;;;;;;;9.30;4.60;;;;;;;-1.37;77.73;98857.90;105554;1254;75523;-24
2023/01/10 06:32:53;;;;;;;7.40;4.00;;;;;;;-1.48;77.90;98859.11;105521;1254;73906;-24
2023/01/10 06:35:20;;;;;;;9.80;5.00;;;;;;;-1.62;78.28;98860.80;105506;1259;62031;-24
2023/01/10 06:37:47;;;;;;;10.20;3.80;;;;;;;-1.49;78.36;98863.42;105335;1259;61507;-24
2023/01/10 06:40:15;;;;;;;9.10;4.10;;;;;;;-1.22;77.65;98869.11;105631;1254;75036;-24
2023/01/10 06:42:42;;;;;;;6.40;3.00;;;;;;;-1.29;77.57;98870.88;105664;1260;76856;-24
2023/01/10 06:45:09;;;;;;;6.50;4.00;;;;;;;-1.44;78.10;98871.23;105699;1260;73173;-24
2023/01/10 06:47:37;;;;;;;4.60;3.30;;;;;;;-1.62;78.80;98878.52;105615;1254;61807;-24
2023/01/10 06:50:05;;;;;;;8.00;3.90;;;;;;;-1.33;78.75;98874.27;105876;1254;62004;-24
2023/01/10 06:52:32;;;;;;;8.10;4.30;;;;;;;-1.03;77.27;98875.94;105562;1259;76457;-24
2023/01/10 06:54:59;;;;;;;8.70;3.80;;;;;;;-1.11;77.14;98873.81;105607;1254;75651;-24
2023/01/10 06:57:29;;;;;;;8.60;2.80;;;;;;;-1.31;77.97;98880.48;105724;1260;74245;-24
2023/01/10 06:59:56;;;;;;;11.50;4.90;;;;;;;-1.48;78.62;98862.89;105700;1254;61733;-24
2023/01/10 07:02:23;;;;;;;4.90;2.50;;;;;;;-1.38;78.66;98879.90;105641;1254;61448;-24
2023/01/10 07:04:50;;;;;;;8.10;3.90;;;;;;;-1.08;77.84;98883.08;105712;1258;75958;-26
2023/01/10 07:07:17;;;;;;;8.20;3.90;;;;;;;-1.11;77.53;98884.38;105588;1258;75521;-25
2023/01/10 07:09:45;;;;;;;6.10;3.20;;;;;;;-1.30;77.65;98879.42;105406;1257;75190;-25
2023/01/10 07:12:12;;;;;;;9.80;4.40;;;;;;;-1.46;78.49;98879.14;105754;1255;61739;-25
2023/01/10 07:14:39;;;;;;;10.10;3.40;;;;;;;-1.35;78.89;98894.79;105826;1254;61469;-25
2023/01/10 07:17:06;;;;;;;6.80;3.60;;;;;;;-1.04;77.94;98890.61;105332;1259;76832;-25
2023/01/10 07:19:33;;;;;;;7.30;2.30;;;;;;;-1.05;77.43;98900.52;105541;1254;76882;-25
2023/01/10 07:22:00;;;;;;;7.70;3.00;;;;;;;-1.16;77.64;98898.88;105752;1254;73869;-25
2023/01/10 07:24:27;;;;;;;6.30;3.70;;;;;;;-1.33;78.28;98889.59;105655;1259;61151;-25
2023/01/10 07:26:55;;;;;;;8.20;4.80;;;;;;;-1.31;78.83;98886.82;105646;1259;63241;-27
2023/01/10 07:29:22;;;;;;;9.10;4.60;;;;;;;-0.97;77.80;98895.14;105677;1254;74976;-25
2023/01/10 07:31:50;;;;;;;7.90;3.40;;;;;;;-1.00;77.47;98894.23;105655;1260;76502;-27
2023/01/10 07:34:17;;;;;;;10.60;5.90;;;;;;;-1.21;78.41;98896.83;105541;1260;73835;-24
2023/01/10 07:36:44;;;;;;;11.40;3.20;;;;;;;-1.38;79.27;98909.20;105534;1257;61749;-26
2023/01/10 07:39:11;;;;;;;5.30;4.20;;;;;;;-1.08;79.19;98910.35;105658;1259;62828;-27
2023/01/10 07:41:38;;;;;;;5.20;3.30;;;;;;;-0.72;77.90;98899.50;105835;1254;75720;-27
2023/01/10 07:44:05;;;;;;;6.90;3.60;;;;;;;-0.66;77.43;98910.36;105840;1254;76613;-24
2023/01/10 07:46:32;;;;;;;6.50;4.10;;;;;;;-0.76;77.24;98909.88;105827;1257;75491;-25
2023/01/10 07:48:59;;;;;;;10.30;4.40;;;;;;;-1.00;77.88;98915.34;105819;1254;62104;-25
2023/01/10 07:51:26;;;;;;;7.70;4.20;;;;;;;-1.09;78.27;98911.91;105815;1257;61425;-25
2023/01/10 07:53:53;;;;;;;9.70;5.80;;;;;;;-0.71;77.58;98915.16;105695;1258;76139;-24
2023/01/10 07:56:20;;;;;;;9.30;5.40;;;;;;;-0.58;76.56;98909.54;105654;1259;75632;-26
2023/01/10 07:58:47;;;;;;;7.50;3.80;;;;;;;-0.74;76.89;98902.83;105691;1260;75000;-24
2023/01/10 08:01:14;;;;;;;7.90;4.50;;;;;;;-0.90;77.46;98914.48;105733;1257;61115;-24
2023/01/10 08:03:41;;;;;;;5.70;3.60;;;;;;;-1.07;77.97;98904.86;105689;1254;61689;-25
2023/01/10 08:06:09;;;;;;;5.80;3.80;;;;;;;-0.95;78.21;98905.64;105602;1258;76473;-25
2023/01/10 08:08:37;;;;;;;9.90;4.30;;;;;;;-0.57;77.31;98914.45;105495;1259;75891;-24
2023/01/10 08:11:04;;;;;;;11.40;5.90;;;;;;;-0.53;76.55;98906.80;105764;1254;75008;-25
2023/01/10 08:13:32;;;;;;;8.00;4.90;;;;;;;-0.67;76.92;98905.95;105554;1257;62034;-24
2023/01/10 08:16:03;;;;;;;9.10;4.70;;;;;;;-0.82;77.49;98897.83;105354;1255;62616;-25
2023/01/10 08:18:31;;;;;;;9.10;3.50;;;;;;;-0.98;78.14;98888.73;105474;1254;76500;-24
2023/01/10 08:20:58;;;;;;;7.30;4.10;;;;;;;-0.70;77.84;98894.15;105515;1254;76699;-24
2023/01/10 08:23:25;;;;;;;5.10;3.70;;;;;;;-0.51;76.99;98897.71;105751;1258;75205;-24
2023/01/10 08:25:53;;;;;;;7.50;4.20;;;;;;;-0.64;76.99;98896.81;105909;1257;61182;-25
2023/01/10 08:28:20;;;;;;;8.30;4.50;;;;;;;-0.79;77.86;98897.35;105678;1259;61475;-24
2023/01/10 08:30:47;;;;;;;8.10;4.10;;;;;;;-0.90;78.48;98904.41;105546;1260;75227;-24
2023/01/10 08:33:16;;;;;;;12.90;4.50;;;;;;;-0.55;77.70;98910.45;105700;1254;76466;-24
2023/01/10 08:35:43;;;;;;;13.20;4.40;;;;;;;-0.34;76.66;98900.97;105650;1259;75039;-25
2023/01/10 08:38:10;;;;;;;5.60;3.30;;;;;;;-0.46;76.37;98902.11;105644;1260;61653;-25
2023/01/10 08:40:37;;;;;;;18.80;7.20;;;;;;;-0.71;77.02;98900.68;105682;1254;61948;-24
2023/01/10 08:43:06;;;;;;;11.90;5.20;;;;;;;-0.94;78.17;98902.17;105648;1259;76404;-24
2023/01/10 08:45:33;;;;;;;8.60;5.00;;;;;;;-0.81;78.61;98908.55;105951;1256;76746;-24
2023/01/10 08:48:00;;;;;;;4.80;3.20;;;;;;;-0.34;76.67;98910.69;105842;1254;75161;-25
2023/01/10 08:50:28;;;;;;;11.50;4.60;;;;;;;-0.27;75.84;98911.12;105677;1255;61821;-25
2023/01/10 08:52:59;;;;;;;10.10;5.00;;;;;;;-0.44;75.53;98906.63;105610;1259;61787;-25
2023/01/10 08:55:26;;;;;;;16.10;4.60;;;;;;;-0.81;76.29;98912.95;105476;1255;76314;-25
2023/01/10 08:57:54;;;;;;;16.00;6.40;;;;;;;-1.03;77.10;98911.21;105697;1260;76811;-25
2023/01/10 09:00:21;;;;;;;12.50;5.70;;;;;;;-1.15;77.89;98910.25;105574;1259;74937;-25
2023/01/10 09:02:49;;;;;;;12.90;5.80;;;;;;;-0.87;77.14;98910.30;105666;1259;61364;-25
2023/01/10 09:05:16;;;;;;;8.80;4.50;;;;;;;-0.80;76.28;98905.08;105667;1264;62756;-25
2023/01/10 09:08:00;;;;;;;11.10;5.30;;;;;;;-1.02;76.58;98903.66;105756;1257;76300;-25
2023/01/10 09:10:27;;;;;;;9.40;5.20;;;;;;;-1.23;77.52;98910.38;105638;1260;75813;-25
2023/01/10 09:12:58;;;;;;;14.30;6.30;;;;;;;-1.30;78.30;98906.86;105716;1260;75175;-25
2023/01/10 09:15:30;;;;;;;16.60;7.90;;;;;;;-0.85;77.11;98900.34;105585;1254;61959;-25
2023/01/10 09:18:03;;;;;;;14.10;6.90;;;;;;;-0.69;75.76;98915.95;105633;1260;62501;-25
2023/01/10 09:20:31;;;;;;;16.00;7.20;;;;;;;-0.81;75.90;98909.02;105710;1262;76074;-25
2023/01/10 09:23:00;;;;;;;13.90;6.20;;;;;;;-1.07;76.38;98914.95;105607;1270;76950;-25
2023/01/10 09:25:27;;;;;;;10.00;4.90;;;;;;;-1.25;76.97;98903.61;105323;1260;74293;-25
2023/01/10 09:27:58;;;;;;;12.20;6.70;;;;;;;-1.14;77.36;98903.91;105644;1254;62769;-25
2023/01/10 09:30:26;;;;;;;21.50;9.20;;;;;;;-0.78;76.16;98898.85;105572;1253;61032;-25
2023/01/10 09:32:53;;;;;;;15.30;6.90;;;;;;;-0.76;75.57;98894.02;105569;1261;75023;-25
2023/01/10 09:35:21;;;;;;;12.60;6.20;;;;;;;-0.92;75.51;98876.73;105661;1264;76849;-25
2023/01/10 09:37:49;;;;;;;11.60;5.60;;;;;;;-1.18;76.44;98883.27;105517;1254;74324;-25
2023/01/10 09:40:18;;;;;;;6.00;3.50;;;;;;;-1.42;77.16;98883.62;105616;1253;61163;-25
2023/01/10 09:43:15;;;;;;;11.20;4.60;;;;;;;-1.18;77.58;98898.77;105717;1254;61052;-25
2023/01/10 09:45:55;;;;;;;13.10;6.80;;;;;;;-0.81;76.24;98902.38;105729;1259;76328;-25
2023/01/10 09:48:41;;;;;;;13.70;6.50;;;;;;;-0.91;75.90;98897.31;105649;1261;75864;-25
2023/01/10 09:51:18;;;;;;;12.50;6.20;;;;;;;-1.08;76.97;98902.33;105674;1259;75432;-25
2023/01/10 09:53:45;;;;;;;7.80;4.80;;;;;;;-1.28;77.45;98897.61;105669;1259;61103;-25
2023/01/10 09:56:13;;;;;;;14.20;6.00;;;;;;;-1.25;77.79;98902.59;105853;1255;61792;-25
2023/01/10 09:58:40;;;;;;;14.00;5.90;;;;;;;-0.88;76.91;98903.67;105719;1255;75165;-25
2023/01/10 10:01:37;;;;;;;6.30;3.00;;;;;;;-0.81;76.08;98911.94;105617;1262;77107;-25
2023/01/10 10:04:10;;;;;;;7.20;4.20;;;;;;;-0.97;76.47;98903.48;105526;1261;73802;-25
2023/01/10 10:06:37;;;;;;;10.70;5.40;;;;;;;-1.17;77.05;98900.45;105705;1260;61959;-25
2023/01/10 10:09:05;;;;;;;8.50;3.30;;;;;;;-1.33;78.18;98898.63;105663;1267;62852;-25
2023/01/10 10:12:00;;;;;;;8.00;4.30;;;;;;;-1.01;77.57;98903.13;105681;1259;76013;-25
2023/01/10 10:14:43;;;;;;;6.40;4.40;;;;;;;-0.77;76.20;98906.69;105657;1270;76660;-25
2023/01/10 10:17:27;;;;;;;5.30;2.40;;;;;;;-0.91;76.32;98909.23;105668;1260;73964;-25
2023/01/10 10:20:18;;;;;;;7.40;4.50;;;;;;;-1.12;76.57;98897.38;105577;1254;61891;-25
2023/01/10 10:23:03;;;;;;;5.10;3.00;;;;;;;-1.44;77.42;98912.28;105628;1258;61035;-25
2023/01/10 10:25:33;;;;;;;13.70;5.80;;;;;;;-1.19;76.99;98918.58;105592;1260;76038;-25
2023/01/10 10:28:33;;;;;;;9.90;5.40;;;;;;;-1.06;75.96;98916.60;105678;1259;77054;-25
2023/01/10 10:31:13;;;;;;;16.30;6.70;;;;;;;-1.24;76.17;98912.47;105650;1254;74410;-27
2023/01/10 10:33:50;;;;;;;9.30;5.40;;;;;;;-1.48;76.86;98917.67;105505;1260;61177;-27
2023/01/10 10:36:28;;;;;;;7.50;3.60;;;;;;;-1.63;77.69;98913.44;105637;1254;62544;-26
2023/01/10 10:38:56;;;;;;;10.90;6.00;;;;;;;-1.35;77.21;98908.23;105494;1267;75333;-25
2023/01/10 10:41:26;;;;;;;7.40;4.80;;;;;;;-1.20;76.09;98912.67;105610;1260;75826;-28
2023/01/10 10:43:53;;;;;;;11.60;6.60;;;;;;;-1.38;76.43;98907.81;105688;1254;74093;-25
2023/01/10 10:46:21;;;;;;;12.20;4.20;;;;;;;-1.62;77.09;98912.40;105547;1261;61166;-24
2023/01/10 10:48:49;;;;;;;12.90;5.10;;;;;;;-1.80;78.21;98917.73;105731;1257;62486;-24
2023/01/10 10:51:26;;;;;;;6.90;3.80;;;;;;;-1.80;78.49;98926.42;105428;1260;75445;-25
2023/01/10 10:53:54;;;;;;;10.10;4.80;;;;;;;-1.40;77.64;98926.11;105644;1254;76441;-25
2023/01/10 10:56:22;;;;;;;7.30;4.30;;;;;;;-1.29;76.93;98924.22;105326;1273;75205;-25
2023/01/10 10:58:52;;;;;;;9.90;4.90;;;;;;;-1.47;77.08;98926.01;105329;1253;61077;-25
2023/01/10 11:01:19;;;;;;;9.10;5.40;;;;;;;-1.64;77.79;98928.13;105426;1260;62063;-25
2023/01/10 11:03:53;;;;;;;5.40;4.30;;;;;;;-1.81;78.48;98930.20;105512;1255;76479;-24
2023/01/10 11:06:20;;;;;;;8.90;4.90;;;;;;;-1.54;78.08;98925.06;105597;1259;77021;-25
2023/01/10 11:08:48;;;;;;;12.90;5.90;;;;;;;-1.22;76.90;98926.38;105459;1259;72892;-25
2023/01/10 11:11:32;;;;;;;9.50;4.40;;;;;;;-1.26;76.46;98923.42;105285;1263;62360;-25
2023/01/10 11:14:04;;;;;;;8.80;5.00;;;;;;;-1.48;76.87;98922.47;105681;1254;61116;-25
2023/01/10 11:16:39;;;;;;;8.50;4.40;;;;;;;-1.77;77.55;98914.23;105372;1262;76360;-25
2023/01/10 11:19:25;;;;;;;9.30;4.30;;;;;;;-1.99;78.21;98924.83;105249;1262;76744;-24
2023/01/10 11:21:59;;;;;;;10.10;5.00;;;;;;;-1.56;78.04;98932.27;105815;1254;73954;-24
2023/01/10 11:24:31;;;;;;;23.00;8.60;;;;;;;-1.39;77.04;98933.39;105698;1254;61061;-24
2023/01/10 11:27:01;;;;;;;10.80;5.60;;;;;;;-1.46;76.35;98937.55;104559;1254;1396052;-25
2023/01/10 11:29:42;;;;;;;5.80;3.80;;;;;;;-1.70;77.17;98936.64;105575;1260;76021;-25
2023/01/10 11:32:13;;;;;;;6.10;3.90;;;;;;;-1.93;78.03;98943.50;105401;1260;75696;-25
2023/01/10 11:34:47;;;;;;;12.50;5.50;;;;;;;-1.73;77.83;98952.55;105585;1256;75600;-25
2023/01/10 11:37:31;;;;;;;15.70;7.50;;;;;;;-1.40;76.51;98949.97;105422;1256;61166;-25
2023/01/10 11:40:25;;;;;;;11.10;7.10;;;;;;;-1.49;76.76;98947.36;105644;1260;62788;-25
2023/01/10 11:42:53;;;;;;;;;;;;;;;-1.78;77.29;98953.92;105575;1255;75436;-25
2023/01/10 11:45:22;;;;;;;9.40;5.70;;;;;;;-2.04;78.12;98953.04;105678;1254;75903;-25
2023/01/10 11:47:55;;;;;;;11.70;5.30;;;;;;;-1.88;78.20;98955.11;105718;1254;72919;-25
2023/01/10 11:50:24;;;;;;;6.90;4.20;;;;;;;-1.65;77.43;98964.58;105672;1257;62069;-25